Private Wetterstation Sandau
Wetterdaten: Samstag, 12.05.2012
Datum Zeit Temp. A. Feuchte A. Luftdruck Regen Wind Richtung Richtung Taupunkt Windchill
12.05.2012 00:01 14,1 C 82 % 1022,1 hPa 0,0 l/m 0,0 km/h (0 Bft) W 270 11,1 C 14,1 C
12.05.2012 00:06 14,1 C 82 % 1022,2 hPa 0,0 l/m 3,6 km/h (1 Bft) W 270 11,1 C 14,1 C
12.05.2012 00:11 14,1 C 82 % 1022,2 hPa 0,0 l/m 2,9 km/h (1 Bft) W-NW 292 11,1 C 14,1 C
12.05.2012 00:16 14,1 C 82 % 1022,1 hPa 0,0 l/m 2,2 km/h (1 Bft) N 360 11,1 C 14,1 C
12.05.2012 00:21 13,9 C 81 % 1022,2 hPa 0,0 l/m 7,2 km/h (2 Bft) NW 315 10,7 C 13,9 C
12.05.2012 00:26 13,8 C 80 % 1022,2 hPa 0,0 l/m 5,8 km/h (2 Bft) N-NW 337 10,4 C 13,8 C
12.05.2012 00:31 13,8 C 80 % 1022,3 hPa 0,0 l/m 7,6 km/h (2 Bft) NW 315 10,4 C 13,8 C
12.05.2012 00:36 13,8 C 80 % 1022,3 hPa 0,0 l/m 2,5 km/h (1 Bft) W-NW 292 10,4 C 13,8 C
12.05.2012 00:41 13,7 C 80 % 1022,3 hPa 0,0 l/m 6,1 km/h (2 Bft) NW 315 10,3 C 13,7 C
12.05.2012 00:46 13,6 C 80 % 1022,3 hPa 0,0 l/m 5,0 km/h (1 Bft) W 270 10,2 C 13,6 C
12.05.2012 00:51 13,6 C 80 % 1022,5 hPa 0,0 l/m 6,5 km/h (2 Bft) N 360 10,2 C 13,6 C
12.05.2012 00:56 13,6 C 80 % 1022,5 hPa 0,0 l/m 4,7 km/h (1 Bft) W-NW 292 10,2 C 13,6 C
12.05.2012 01:01 13,6 C 79 % 1022,5 hPa 0,0 l/m 7,2 km/h (2 Bft) W 270 10,0 C 13,6 C
12.05.2012 01:06 13,6 C 79 % 1022,5 hPa 0,0 l/m 7,6 km/h (2 Bft) W-NW 292 10,0 C 13,6 C
12.05.2012 01:11 13,5 C 79 % 1022,4 hPa 0,0 l/m 8,3 km/h (2 Bft) W-NW 292 9,9 C 13,5 C
12.05.2012 01:16 13,4 C 80 % 1022,5 hPa 0,0 l/m 9,4 km/h (2 Bft) W-NW 292 10,0 C 13,4 C
12.05.2012 01:21 13,3 C 80 % 1022,6 hPa 0,0 l/m 8,3 km/h (2 Bft) W-NW 292 9,9 C 13,3 C
12.05.2012 01:26 13,3 C 80 % 1022,7 hPa 0,0 l/m 8,6 km/h (2 Bft) NW 315 9,9 C 13,3 C
12.05.2012 01:31 13,1 C 79 % 1022,8 hPa 0,0 l/m 9,7 km/h (2 Bft) W 270 9,5 C 13,1 C
12.05.2012 01:36 13,0 C 78 % 1022,9 hPa 0,0 l/m 9,4 km/h (2 Bft) W 270 9,3 C 13,0 C
12.05.2012 01:41 12,9 C 77 % 1022,8 hPa 0,0 l/m 7,6 km/h (2 Bft) W-NW 292 9,0 C 12,9 C
12.05.2012 01:46 12,7 C 77 % 1022,9 hPa 0,0 l/m 7,6 km/h (2 Bft) W-NW 292 8,8 C 12,7 C
12.05.2012 01:51 12,5 C 77 % 1022,8 hPa 0,0 l/m 6,1 km/h (2 Bft) N-NW 337 8,6 C 12,5 C
12.05.2012 01:56 12,4 C 77 % 1023,0 hPa 0,0 l/m 6,5 km/h (2 Bft) W 270 8,5 C 12,4 C
12.05.2012 02:01 12,2 C 77 % 1023,1 hPa 0,0 l/m 15,8 km/h (3 Bft) NW 315 8,3 C 12,2 C
12.05.2012 02:06 12,1 C 77 % 1023,1 hPa 0,0 l/m 12,2 km/h (2 Bft) W-NW 292 8,2 C 12,1 C
12.05.2012 02:11 11,9 C 77 % 1023,2 hPa 0,0 l/m 7,9 km/h (2 Bft) NW 315 8,0 C 11,9 C
12.05.2012 02:16 11,9 C 77 % 1023,1 hPa 0,0 l/m 10,8 km/h (2 Bft) W 270 8,0 C 11,9 C
12.05.2012 02:21 11,8 C 76 % 1023,2 hPa 0,0 l/m 3,2 km/h (1 Bft) W 270 7,7 C 11,8 C
12.05.2012 02:26 11,6 C 75 % 1023,2 hPa 0,0 l/m 10,8 km/h (2 Bft) W-NW 292 7,3 C 11,6 C
12.05.2012 02:31 11,5 C 74 % 1023,3 hPa 0,0 l/m 12,2 km/h (2 Bft) NW 315 7,0 C 11,5 C
12.05.2012 02:36 11,4 C 73 % 1023,3 hPa 0,0 l/m 10,1 km/h (2 Bft) W-SW 247 6,7 C 11,4 C
12.05.2012 02:41 11,3 C 73 % 1023,4 hPa 0,0 l/m 5,8 km/h (2 Bft) W-NW 292 6,6 C 11,3 C
12.05.2012 02:46 11,2 C 73 % 1023,5 hPa 0,0 l/m 15,5 km/h (3 Bft) W-NW 292 6,5 C 11,2 C
12.05.2012 02:51 11,1 C 73 % 1023,7 hPa 0,0 l/m 5,8 km/h (2 Bft) NW 315 6,4 C 11,1 C
12.05.2012 02:56 11,0 C 73 % 1023,7 hPa 0,0 l/m 11,2 km/h (2 Bft) NW 315 6,4 C 11,0 C
12.05.2012 03:01 10,9 C 74 % 1023,8 hPa 0,0 l/m 11,5 km/h (2 Bft) W-NW 292 6,5 C 10,9 C
12.05.2012 03:06 10,8 C 74 % 1023,8 hPa 0,0 l/m 6,8 km/h (2 Bft) W 270 6,4 C 10,8 C
12.05.2012 03:11 10,7 C 74 % 1023,9 hPa 0,0 l/m 14,8 km/h (3 Bft) W-NW 292 6,3 C 10,7 C
12.05.2012 03:16 10,5 C 74 % 1023,9 hPa 0,0 l/m 13,7 km/h (3 Bft) W-NW 292 6,1 C 10,5 C
12.05.2012 03:21 10,4 C 75 % 1024,0 hPa 0,0 l/m 7,9 km/h (2 Bft) W-NW 292 6,2 C 10,4 C
12.05.2012 03:26 10,3 C 75 % 1024,0 hPa 0,0 l/m 5,4 km/h (1 Bft) W-NW 292 6,1 C 10,3 C
12.05.2012 03:31 10,3 C 76 % 1024,1 hPa 0,0 l/m 2,5 km/h (1 Bft) W 270 6,3 C 10,3 C
12.05.2012 03:36 10,2 C 76 % 1024,2 hPa 0,0 l/m 13,7 km/h (3 Bft) NW 315 6,2 C 10,2 C
12.05.2012 03:41 10,1 C 76 % 1024,3 hPa 0,0 l/m 9,7 km/h (2 Bft) W-NW 292 6,1 C 10,1 C
12.05.2012 03:46 10,1 C 76 % 1024,4 hPa 0,0 l/m 9,7 km/h (2 Bft) W-NW 292 6,1 C 10,1 C
12.05.2012 03:51 10,1 C 76 % 1024,6 hPa 0,0 l/m 11,5 km/h (2 Bft) W-NW 292 6,1 C 10,1 C
12.05.2012 03:56 10,1 C 77 % 1024,7 hPa 0,0 l/m 14,8 km/h (3 Bft) NW 315 6,3 C 10,1 C
12.05.2012 04:01 10,2 C 77 % 1024,7 hPa 0,0 l/m 10,8 km/h (2 Bft) NW 315 6,4 C 10,2 C
12.05.2012 04:06 10,1 C 77 % 1024,9 hPa 0,0 l/m 4,3 km/h (1 Bft) N-NW 337 6,3 C 10,1 C
12.05.2012 04:11 10,1 C 77 % 1024,8 hPa 0,0 l/m 20,2 km/h (4 Bft) W-NW 292 6,3 C 10,1 C
12.05.2012 04:16 10,1 C 76 % 1024,9 hPa 0,0 l/m 10,1 km/h (2 Bft) W-SW 247 6,1 C 10,1 C
12.05.2012 04:21 10,1 C 76 % 1025,0 hPa 0,0 l/m 16,6 km/h (3 Bft) NW 315 6,1 C 10,1 C
12.05.2012 04:26 9,9 C 74 % 1025,0 hPa 0,0 l/m 14,4 km/h (3 Bft) W 270 5,5 C 7,9 C
12.05.2012 04:31 9,9 C 74 % 1025,0 hPa 0,0 l/m 15,8 km/h (3 Bft) W 270 5,5 C 7,7 C
12.05.2012 04:36 9,8 C 74 % 1025,1 hPa 0,0 l/m 29,5 km/h (5 Bft) NW 315 5,4 C 6,3 C
12.05.2012 04:41 9,6 C 73 % 1025,1 hPa 0,0 l/m 19,8 km/h (3 Bft) NW 315 5,0 C 6,9 C
12.05.2012 04:46 9,5 C 73 % 1025,1 hPa 0,0 l/m 11,5 km/h (2 Bft) W-NW 292 4,9 C 7,8 C
12.05.2012 04:51 9,4 C 73 % 1025,1 hPa 0,0 l/m 14,8 km/h (3 Bft) N-NW 337 4,8 C 7,2 C
12.05.2012 04:56 9,3 C 73 % 1025,0 hPa 0,0 l/m 12,2 km/h (2 Bft) W 270 4,7 C 7,4 C
12.05.2012 05:01 9,2 C 73 % 1025,0 hPa 0,0 l/m 8,3 km/h (2 Bft) W-NW 292 4,6 C 8,0 C
12.05.2012 05:06 9,2 C 74 % 1025,1 hPa 0,0 l/m 9,4 km/h (2 Bft) W 270 4,8 C 7,8 C
12.05.2012 05:11 9,1 C 74 % 1025,1 hPa 0,0 l/m 9,7 km/h (2 Bft) W-SW 247 4,7 C 7,6 C
12.05.2012 05:16 9,0 C 75 % 1025,1 hPa 0,0 l/m 11,5 km/h (2 Bft) W-NW 292 4,8 C 7,2 C
12.05.2012 05:21 8,9 C 75 % 1025,1 hPa 0,0 l/m 13,0 km/h (3 Bft) W-NW 292 4,7 C 6,8 C
12.05.2012 05:26 8,9 C 74 % 1025,1 hPa 0,0 l/m 5,8 km/h (2 Bft) N-NW 337 4,5 C 8,3 C
12.05.2012 05:31 8,8 C 75 % 1025,1 hPa 0,0 l/m 10,4 km/h (2 Bft) W 270 4,6 C 7,1 C
12.05.2012 05:36 8,8 C 75 % 1025,1 hPa 0,0 l/m 15,1 km/h (3 Bft) W-NW 292 4,6 C 6,4 C
12.05.2012 05:41 8,8 C 75 % 1025,2 hPa 0,0 l/m 7,2 km/h (2 Bft) W-NW 292 4,6 C 7,8 C
12.05.2012 05:46 8,6 C 75 % 1025,3 hPa 0,0 l/m 11,5 km/h (2 Bft) W-NW 292 4,4 C 6,7 C
12.05.2012 05:51 8,5 C 75 % 1025,4 hPa 0,0 l/m 17,3 km/h (3 Bft) W-NW 292 4,3 C 5,8 C
12.05.2012 05:56 8,5 C 75 % 1025,5 hPa 0,0 l/m 11,2 km/h (2 Bft) NW 315 4,3 C 6,6 C
12.05.2012 06:01 8,4 C 76 % 1025,6 hPa 0,0 l/m 11,2 km/h (2 Bft) W-NW 292 4,4 C 6,5 C
12.05.2012 06:06 8,4 C 76 % 1025,7 hPa 0,0 l/m 16,9 km/h (3 Bft) W-NW 292 4,4 C 5,7 C
12.05.2012 06:11 8,4 C 76 % 1025,6 hPa 0,0 l/m 14,4 km/h (3 Bft) NW 315 4,4 C 6,0 C
12.05.2012 06:16 8,3 C 76 % 1025,7 hPa 0,0 l/m 11,9 km/h (2 Bft) W 270 4,3 C 6,3 C
12.05.2012 06:21 8,3 C 76 % 1025,8 hPa 0,0 l/m 10,8 km/h (2 Bft) W 270 4,3 C 6,5 C
12.05.2012 06:26 8,2 C 76 % 1026,0 hPa 0,0 l/m 13,0 km/h (3 Bft) W 270 4,2 C 6,0 C
12.05.2012 06:31 8,2 C 77 % 1026,1 hPa 0,0 l/m 14,4 km/h (3 Bft) W-NW 292 4,4 C 5,8 C
12.05.2012 06:36 8,4 C 77 % 1026,1 hPa 0,0 l/m 16,9 km/h (3 Bft) W-NW 292 4,6 C 5,7 C
12.05.2012 06:41 8,7 C 77 % 1026,1 hPa 0,0 l/m 18,4 km/h (3 Bft) W-NW 292 4,9 C 5,9 C
12.05.2012 06:46 8,9 C 76 % 1026,2 hPa 0,0 l/m 24,1 km/h (4 Bft) W-NW 292 4,9 C 5,6 C
12.05.2012 06:51 8,9 C 76 % 1026,2 hPa 0,0 l/m 16,9 km/h (3 Bft) W 270 4,9 C 6,3 C
12.05.2012 06:56 9,0 C 76 % 1026,2 hPa 0,0 l/m 10,8 km/h (2 Bft) W-SW 247 5,0 C 7,3 C
12.05.2012 07:01 9,3 C 75 % 1026,2 hPa 0,0 l/m 10,8 km/h (2 Bft) NW 315 5,1 C 7,7 C
12.05.2012 07:06 9,4 C 75 % 1026,5 hPa 0,0 l/m 12,6 km/h (3 Bft) W-NW 292 5,2 C 7,5 C
12.05.2012 07:11 9,5 C 75 % 1026,5 hPa 0,0 l/m 7,2 km/h (2 Bft) W 270 5,3 C 8,6 C
12.05.2012 07:16 9,5 C 75 % 1026,5 hPa 0,0 l/m 13,0 km/h (3 Bft) NW 315 5,3 C 7,6 C
12.05.2012 07:21 9,6 C 75 % 1026,5 hPa 0,0 l/m 12,6 km/h (3 Bft) NW 315 5,4 C 7,7 C
12.05.2012 07:26 9,6 C 74 % 1026,8 hPa 0,0 l/m 10,1 km/h (2 Bft) NW 315 5,2 C 8,1 C
12.05.2012 07:31 9,6 C 74 % 1026,8 hPa 0,0 l/m 5,0 km/h (1 Bft) W-SW 247 5,2 C 9,3 C
12.05.2012 07:36 9,6 C 74 % 1026,8 hPa 0,0 l/m 19,1 km/h (3 Bft) W-SW 247 5,2 C 7,0 C
12.05.2012 07:41 9,7 C 74 % 1026,9 hPa 0,0 l/m 10,8 km/h (2 Bft) W-NW 292 5,3 C 8,1 C
12.05.2012 07:46 9,8 C 74 % 1026,9 hPa 0,0 l/m 10,4 km/h (2 Bft) SW 225 5,4 C 8,3 C
12.05.2012 07:51 9,8 C 74 % 1026,9 hPa 0,0 l/m 11,2 km/h (2 Bft) NW 315 5,4 C 8,2 C
12.05.2012 07:56 9,8 C 72 % 1027,1 hPa 0,0 l/m 16,2 km/h (3 Bft) W-NW 292 5,0 C 7,5 C
12.05.2012 08:01 9,8 C 72 % 1027,2 hPa 0,0 l/m 9,4 km/h (2 Bft) W-NW 292 5,0 C 8,5 C
12.05.2012 08:06 9,8 C 72 % 1027,2 hPa 0,0 l/m 13,3 km/h (3 Bft) W 270 5,0 C 7,9 C
12.05.2012 08:11 9,9 C 71 % 1027,3 hPa 0,0 l/m 25,6 km/h (4 Bft) W-NW 292 4,9 C 6,8 C
12.05.2012 08:16 9,9 C 71 % 1027,3 hPa 0,0 l/m 13,0 km/h (3 Bft) W-NW 292 4,9 C 8,1 C
12.05.2012 08:21 9,9 C 71 % 1027,3 hPa 0,0 l/m 15,1 km/h (3 Bft) NW 315 4,9 C 7,8 C
12.05.2012 08:26 9,9 C 70 % 1027,5 hPa 0,0 l/m 13,0 km/h (3 Bft) W-NW 292 4,7 C 8,1 C
12.05.2012 08:31 9,9 C 69 % 1027,6 hPa 0,0 l/m 7,2 km/h (2 Bft) N 360 4,5 C 9,1 C
12.05.2012 08:36 9,9 C 68 % 1027,5 hPa 0,0 l/m 14,8 km/h (3 Bft) NW 315 4,3 C 7,8 C
12.05.2012 08:41 9,9 C 68 % 1027,7 hPa 0,0 l/m 13,0 km/h (3 Bft) W 270 4,3 C 8,1 C
12.05.2012 08:46 10,1 C 68 % 1027,7 hPa 0,0 l/m 13,3 km/h (3 Bft) W 270 4,5 C 10,1 C
12.05.2012 08:51 10,1 C 68 % 1027,8 hPa 0,0 l/m 8,6 km/h (2 Bft) W-NW 292 4,5 C 10,1 C
12.05.2012 08:56 10,1 C 67 % 1027,7 hPa 0,0 l/m 15,1 km/h (3 Bft) W-SW 247 4,3 C 10,1 C
12.05.2012 09:01 10,1 C 68 % 1027,7 hPa 0,0 l/m 8,3 km/h (2 Bft) W-NW 292 4,5 C 10,1 C
12.05.2012 09:06 10,1 C 68 % 1027,8 hPa 0,0 l/m 16,6 km/h (3 Bft) W-SW 247 4,5 C 10,1 C
12.05.2012 09:11 9,9 C 68 % 1027,9 hPa 0,0 l/m 7,9 km/h (2 Bft) N 360 4,3 C 8,9 C
12.05.2012 09:16 10,1 C 69 % 1027,9 hPa 0,0 l/m 16,2 km/h (3 Bft) W-NW 292 4,7 C 10,1 C
12.05.2012 09:21 10,4 C 68 % 1027,8 hPa 0,0 l/m 14,8 km/h (3 Bft) W 270 4,8 C 10,4 C
12.05.2012 09:26 10,8 C 67 % 1027,9 hPa 0,0 l/m 14,0 km/h (3 Bft) W-NW 292 4,9 C 10,8 C
12.05.2012 09:31 10,9 C 65 % 1028,1 hPa 0,0 l/m 22,0 km/h (4 Bft) W 270 4,6 C 10,9 C
12.05.2012 09:36 10,7 C 66 % 1028,2 hPa 0,0 l/m 14,0 km/h (3 Bft) W-NW 292 4,6 C 10,7 C
12.05.2012 09:41 10,8 C 65 % 1028,2 hPa 0,0 l/m 9,7 km/h (2 Bft) NW 315 4,5 C 10,8 C
12.05.2012 09:46 10,6 C 65 % 1028,3 hPa 0,0 l/m 15,5 km/h (3 Bft) W-NW 292 4,3 C 10,6 C
12.05.2012 09:51 10,7 C 64 % 1028,4 hPa 0,0 l/m 13,3 km/h (3 Bft) W-NW 292 4,2 C 10,7 C
12.05.2012 09:56 11,0 C 64 % 1028,4 hPa 0,0 l/m 24,5 km/h (4 Bft) W 270 4,5 C 11,0 C
12.05.2012 10:01 11,1 C 62 % 1028,3 hPa 0,0 l/m 6,1 km/h (2 Bft) N 360 4,1 C 11,1 C
12.05.2012 10:06 11,1 C 61 % 1028,5 hPa 0,0 l/m 13,0 km/h (3 Bft) NW 315 3,9 C 11,1 C
12.05.2012 10:11 11,2 C 60 % 1028,5 hPa 0,0 l/m 6,5 km/h (2 Bft) N-NW 337 3,7 C 11,2 C
12.05.2012 10:16 11,1 C 60 % 1028,4 hPa 0,0 l/m 22,3 km/h (4 Bft) W 270 3,6 C 11,1 C
12.05.2012 10:21 11,0 C 61 % 1028,5 hPa 0,0 l/m 29,5 km/h (5 Bft) W-NW 292 3,8 C 11,0 C
12.05.2012 10:26 11,1 C 60 % 1028,6 hPa 0,0 l/m 6,1 km/h (2 Bft) W-NW 292 3,6 C 11,1 C
12.05.2012 10:31 11,3 C 59 % 1028,4 hPa 0,0 l/m 27,4 km/h (4 Bft) NW 315 3,6 C 11,3 C
12.05.2012 10:36 11,4 C 58 % 1028,6 hPa 0,0 l/m 20,9 km/h (4 Bft) N-NW 337 3,4 C 11,4 C
12.05.2012 10:41 11,5 C 58 % 1028,6 hPa 0,0 l/m 24,8 km/h (4 Bft) W-NW 292 3,5 C 11,5 C
12.05.2012 10:46 11,6 C 59 % 1028,5 hPa 0,0 l/m 16,6 km/h (3 Bft) W-NW 292 3,9 C 11,6 C
12.05.2012 10:51 11,8 C 58 % 1028,6 hPa 0,0 l/m 16,9 km/h (3 Bft) W-NW 292 3,8 C 11,8 C
12.05.2012 10:56 11,8 C 57 % 1028,6 hPa 0,0 l/m 20,9 km/h (4 Bft) W-NW 292 3,6 C 11,8 C
12.05.2012 11:01 12,2 C 57 % 1028,7 hPa 0,0 l/m 21,2 km/h (4 Bft) W-NW 292 3,9 C 12,2 C
12.05.2012 11:06 12,1 C 57 % 1028,7 hPa 0,0 l/m 11,9 km/h (2 Bft) N 360 3,8 C 12,1 C
12.05.2012 11:11 11,9 C 56 % 1028,6 hPa 0,0 l/m 18,4 km/h (3 Bft) NW 315 3,4 C 11,9 C
12.05.2012 11:16 11,9 C 56 % 1028,6 hPa 0,0 l/m 14,8 km/h (3 Bft) N-NW 337 3,4 C 11,9 C
12.05.2012 11:21 11,9 C 56 % 1028,6 hPa 0,0 l/m 15,5 km/h (3 Bft) W 270 3,4 C 11,9 C
12.05.2012 11:26 12,4 C 56 % 1028,7 hPa 0,0 l/m 5,4 km/h (1 Bft) NW 315 3,9 C 12,4 C
12.05.2012 11:31 12,4 C 56 % 1028,7 hPa 0,0 l/m 32,8 km/h (5 Bft) W-NW 292 3,9 C 12,4 C
12.05.2012 11:36 12,4 C 54 % 1028,7 hPa 0,0 l/m 7,6 km/h (2 Bft) NW 315 3,4 C 12,4 C
12.05.2012 11:41 12,4 C 54 % 1028,7 hPa 0,0 l/m 21,2 km/h (4 Bft) W-NW 292 3,4 C 12,4 C
12.05.2012 11:46 12,6 C 54 % 1028,9 hPa 0,0 l/m 25,2 km/h (4 Bft) W-NW 292 3,5 C 12,6 C
12.05.2012 11:51 12,8 C 53 % 1028,8 hPa 0,0 l/m 25,6 km/h (4 Bft) W 270 3,5 C 12,8 C
12.05.2012 11:56 13,0 C 53 % 1028,8 hPa 0,0 l/m 16,9 km/h (3 Bft) N-NW 337 3,6 C 13,0 C
12.05.2012 12:01 13,3 C 52 % 1028,8 hPa 0,0 l/m 24,5 km/h (4 Bft) W-NW 292 3,7 C 13,3 C
12.05.2012 12:06 13,4 C 53 % 1028,7 hPa 0,0 l/m 15,5 km/h (3 Bft) NW 315 4,0 C 13,4 C
12.05.2012 12:11 13,8 C 51 % 1028,8 hPa 0,0 l/m 18,4 km/h (3 Bft) NW 315 3,8 C 13,8 C
12.05.2012 12:16 13,7 C 51 % 1028,9 hPa 0,0 l/m 14,4 km/h (3 Bft) NW 315 3,8 C 13,7 C
12.05.2012 12:21 13,6 C 51 % 1029,0 hPa 0,0 l/m 11,2 km/h (2 Bft) NW 315 3,7 C 13,6 C
12.05.2012 12:26 13,4 C 52 % 1029,0 hPa 0,0 l/m 25,2 km/h (4 Bft) W-NW 292 3,7 C 13,4 C
12.05.2012 12:31 13,5 C 53 % 1028,9 hPa 0,0 l/m 16,2 km/h (3 Bft) W-NW 292 4,1 C 13,5 C
12.05.2012 12:36 13,8 C 52 % 1028,9 hPa 0,0 l/m 13,7 km/h (3 Bft) NW 315 4,1 C 13,8 C
12.05.2012 12:41 14,1 C 51 % 1029,0 hPa 0,0 l/m 4,3 km/h (1 Bft) O-NO 67 4,1 C 14,1 C
12.05.2012 12:46 13,9 C 50 % 1028,9 hPa 0,0 l/m 18,7 km/h (3 Bft) W-NW 292 3,7 C 13,9 C
12.05.2012 12:51 13,9 C 53 % 1029,0 hPa 0,0 l/m 15,5 km/h (3 Bft) SW 225 4,5 C 13,9 C
12.05.2012 12:56 13,9 C 51 % 1028,9 hPa 0,0 l/m 14,4 km/h (3 Bft) W 270 3,9 C 13,9 C
12.05.2012 13:01 14,1 C 50 % 1029,0 hPa 0,0 l/m 28,8 km/h (4 Bft) W-SW 247 3,8 C 14,1 C
12.05.2012 13:06 14,2 C 50 % 1029,0 hPa 0,0 l/m 27,4 km/h (4 Bft) W-NW 292 3,9 C 14,2 C
12.05.2012 13:11 13,9 C 49 % 1029,0 hPa 0,0 l/m 18,4 km/h (3 Bft) NW 315 3,4 C 13,9 C
12.05.2012 13:16 13,8 C 51 % 1029,2 hPa 0,0 l/m 19,1 km/h (3 Bft) W-NW 292 3,8 C 13,8 C
12.05.2012 13:21 13,8 C 51 % 1029,1 hPa 0,0 l/m 17,3 km/h (3 Bft) W 270 3,8 C 13,8 C
12.05.2012 13:26 14,1 C 50 % 1029,1 hPa 0,0 l/m 22,7 km/h (4 Bft) W-NW 292 3,8 C 14,1 C
12.05.2012 13:31 14,3 C 49 % 1029,1 hPa 0,0 l/m 27,0 km/h (4 Bft) W 270 3,7 C 14,3 C
12.05.2012 13:36 14,6 C 48 % 1029,2 hPa 0,0 l/m 20,9 km/h (4 Bft) W 270 3,7 C 14,6 C
12.05.2012 13:41 14,8 C 48 % 1029,2 hPa 0,0 l/m 23,4 km/h (4 Bft) W 270 3,9 C 14,8 C
12.05.2012 13:46 14,4 C 48 % 1029,1 hPa 0,0 l/m 7,2 km/h (2 Bft) W-NW 292 3,5 C 14,4 C
12.05.2012 13:51 14,2 C 48 % 1029,1 hPa 0,0 l/m 15,5 km/h (3 Bft) W-NW 292 3,4 C 14,2 C
12.05.2012 13:56 13,8 C 49 % 1029,2 hPa 0,0 l/m 18,4 km/h (3 Bft) W-NW 292 3,3 C 13,8 C
12.05.2012 14:01 13,8 C 50 % 1029,2 hPa 0,0 l/m 10,1 km/h (2 Bft) N-NW 337 3,6 C 13,8 C
12.05.2012 14:06 13,8 C 50 % 1029,3 hPa 0,0 l/m 21,2 km/h (4 Bft) NW 315 3,6 C 13,8 C
12.05.2012 14:11 13,6 C 49 % 1029,3 hPa 0,0 l/m 26,6 km/h (4 Bft) W-NW 292 3,1 C 13,6 C
12.05.2012 14:16 13,6 C 49 % 1029,3 hPa 0,0 l/m 16,6 km/h (3 Bft) W 270 3,1 C 13,6 C
12.05.2012 14:21 13,6 C 49 % 1029,2 hPa 0,0 l/m 19,8 km/h (3 Bft) W-NW 292 3,1 C 13,6 C
12.05.2012 14:26 13,8 C 49 % 1029,3 hPa 0,0 l/m 11,9 km/h (2 Bft) W 270 3,3 C 13,8 C
12.05.2012 14:31 13,9 C 48 % 1029,5 hPa 0,0 l/m 18,4 km/h (3 Bft) W 270 3,1 C 13,9 C
12.05.2012 14:36 14,1 C 48 % 1029,4 hPa 0,0 l/m 22,0 km/h (4 Bft) W-SW 247 3,3 C 14,1 C
12.05.2012 14:41 14,6 C 48 % 1029,4 hPa 0,0 l/m 14,0 km/h (3 Bft) W-NW 292 3,7 C 14,6 C
12.05.2012 14:46 14,9 C 46 % 1029,4 hPa 0,0 l/m 18,7 km/h (3 Bft) NW 315 3,4 C 14,9 C
12.05.2012 14:51 14,9 C 47 % 1029,4 hPa 0,0 l/m 25,6 km/h (4 Bft) NW 315 3,7 C 14,9 C
12.05.2012 14:56 15,0 C 46 % 1029,6 hPa 0,0 l/m 20,9 km/h (4 Bft) W 270 3,5 C 15,0 C
12.05.2012 15:01 15,1 C 45 % 1029,6 hPa 0,0 l/m 10,8 km/h (2 Bft) W-NW 292 3,3 C 15,1 C
12.05.2012 15:06 14,9 C 45 % 1029,4 hPa 0,0 l/m 13,3 km/h (3 Bft) W 270 3,1 C 14,9 C
12.05.2012 15:11 14,9 C 45 % 1029,5 hPa 0,0 l/m 28,8 km/h (4 Bft) W-NW 292 3,1 C 14,9 C
12.05.2012 15:16 14,8 C 45 % 1029,7 hPa 0,0 l/m 9,0 km/h (2 Bft) NW 315 3,0 C 14,8 C
12.05.2012 15:21 14,4 C 45 % 1029,8 hPa 0,0 l/m 6,1 km/h (2 Bft) NW 315 2,6 C 14,4 C
12.05.2012 15:26 13,9 C 47 % 1029,8 hPa 0,0 l/m 10,4 km/h (2 Bft) N-NW 337 2,8 C 13,9 C
12.05.2012 15:31 13,9 C 46 % 1029,8 hPa 0,0 l/m 14,8 km/h (3 Bft) W 270 2,5 C 13,9 C
12.05.2012 15:36 13,9 C 47 % 1029,8 hPa 0,0 l/m 9,0 km/h (2 Bft) W 270 2,8 C 13,9 C
12.05.2012 15:41 13,8 C 48 % 1030,0 hPa 0,0 l/m 5,0 km/h (1 Bft) NO 45 3,0 C 13,8 C
12.05.2012 15:46 13,3 C 49 % 1030,1 hPa 0,0 l/m 9,4 km/h (2 Bft) NW 315 2,8 C 13,3 C
12.05.2012 15:51 13,3 C 50 % 1030,1 hPa 0,0 l/m 9,7 km/h (2 Bft) NW 315 3,1 C 13,3 C
12.05.2012 15:56 13,7 C 50 % 1030,0 hPa 0,0 l/m 19,1 km/h (3 Bft) W-NW 292 3,5 C 13,7 C
12.05.2012 16:01 14,1 C 48 % 1029,9 hPa 0,0 l/m 9,0 km/h (2 Bft) W 270 3,3 C 14,1 C
12.05.2012 16:06 14,3 C 47 % 1029,7 hPa 0,0 l/m 12,2 km/h (2 Bft) N-NW 337 3,1 C 14,3 C
12.05.2012 16:11 14,2 C 47 % 1030,0 hPa 0,0 l/m 16,9 km/h (3 Bft) NW 315 3,1 C 14,2 C
12.05.2012 16:16 13,8 C 46 % 1030,0 hPa 0,0 l/m 11,9 km/h (2 Bft) W-NW 292 2,4 C 13,8 C
12.05.2012 16:21 13,6 C 47 % 1029,8 hPa 0,0 l/m 9,4 km/h (2 Bft) NW 315 2,5 C 13,6 C
12.05.2012 16:26 13,6 C 47 % 1029,9 hPa 0,0 l/m 10,4 km/h (2 Bft) W 270 2,5 C 13,6 C
12.05.2012 16:31 13,4 C 46 % 1029,8 hPa 0,0 l/m 22,3 km/h (4 Bft) W-NW 292 2,0 C 13,4 C
12.05.2012 16:36 13,4 C 47 % 1030,0 hPa 0,0 l/m 13,7 km/h (3 Bft) W 270 2,3 C 13,4 C
12.05.2012 16:41 13,6 C 46 % 1029,9 hPa 0,0 l/m 14,4 km/h (3 Bft) W-NW 292 2,2 C 13,6 C
12.05.2012 16:46 13,9 C 44 % 1029,9 hPa 0,0 l/m 25,2 km/h (4 Bft) W 270 1,9 C 13,9 C
12.05.2012 16:51 14,1 C 44 % 1029,8 hPa 0,0 l/m 28,1 km/h (4 Bft) W-SW 247 2,0 C 14,1 C
12.05.2012 16:56 14,2 C 43 % 1029,9 hPa 0,0 l/m 14,8 km/h (3 Bft) W-NW 292 1,8 C 14,2 C
12.05.2012 17:01 14,3 C 43 % 1029,9 hPa 0,0 l/m 24,8 km/h (4 Bft) W 270 1,9 C 14,3 C
12.05.2012 17:06 14,4 C 43 % 1029,9 hPa 0,0 l/m 19,1 km/h (3 Bft) NW 315 2,0 C 14,4 C
12.05.2012 17:11 14,4 C 42 % 1030,0 hPa 0,0 l/m 6,5 km/h (2 Bft) NW 315 1,7 C 14,4 C
12.05.2012 17:16 14,4 C 43 % 1029,9 hPa 0,0 l/m 13,0 km/h (3 Bft) W 270 2,0 C 14,4 C
12.05.2012 17:21 14,4 C 42 % 1029,9 hPa 0,0 l/m 16,9 km/h (3 Bft) NW 315 1,7 C 14,4 C
12.05.2012 17:26 14,1 C 43 % 1029,9 hPa 0,0 l/m 6,8 km/h (2 Bft) O-NO 67 1,7 C 14,1 C
12.05.2012 17:31 13,6 C 44 % 1029,8 hPa 0,0 l/m 16,6 km/h (3 Bft) N-NW 337 1,6 C 13,6 C
12.05.2012 17:36 13,5 C 45 % 1030,0 hPa 0,0 l/m 20,9 km/h (4 Bft) N-NO 22 1,8 C 13,5 C
12.05.2012 17:41 13,6 C 45 % 1030,0 hPa 0,0 l/m 12,2 km/h (2 Bft) W 270 1,9 C 13,6 C
12.05.2012 17:46 13,9 C 45 % 1029,9 hPa 0,0 l/m 22,3 km/h (4 Bft) W 270 2,2 C 13,9 C
12.05.2012 17:51 13,9 C 43 % 1029,9 hPa 0,0 l/m 19,4 km/h (3 Bft) W 270 1,5 C 13,9 C
12.05.2012 17:56 13,6 C 44 % 1030,1 hPa 0,0 l/m 14,4 km/h (3 Bft) NW 315 1,6 C 13,6 C
12.05.2012 18:01 13,6 C 45 % 1030,1 hPa 0,0 l/m 8,3 km/h (2 Bft) N 360 1,9 C 13,6 C
12.05.2012 18:06 13,7 C 45 % 1030,2 hPa 0,0 l/m 11,5 km/h (2 Bft) W-NW 292 2,0 C 13,7 C
12.05.2012 18:11 13,8 C 43 % 1030,1 hPa 0,0 l/m 6,1 km/h (2 Bft) O-SO 112 1,4 C 13,8 C
12.05.2012 18:16 13,5 C 43 % 1030,3 hPa 0,0 l/m 14,4 km/h (3 Bft) W-NW 292 1,2 C 13,5 C
12.05.2012 18:21 13,3 C 42 % 1030,4 hPa 0,0 l/m 10,1 km/h (2 Bft) W-NW 292 0,7 C 13,3 C
12.05.2012 18:26 13,0 C 43 % 1030,3 hPa 0,0 l/m 21,6 km/h (4 Bft) W-NW 292 0,7 C 13,0 C
12.05.2012 18:31 12,8 C 44 % 1030,5 hPa 0,0 l/m 10,4 km/h (2 Bft) W 270 0,9 C 12,8 C
12.05.2012 18:36 12,6 C 45 % 1030,3 hPa 0,0 l/m 8,3 km/h (2 Bft) N-NW 337 1,0 C 12,6 C
12.05.2012 18:41 12,5 C 46 % 1030,5 hPa 0,0 l/m 12,2 km/h (2 Bft) N-NW 337 1,2 C 12,5 C
12.05.2012 18:46 12,4 C 47 % 1030,5 hPa 0,0 l/m 6,8 km/h (2 Bft) N-NW 337 1,4 C 12,4 C
12.05.2012 18:51 12,6 C 46 % 1030,3 hPa 0,0 l/m 12,6 km/h (3 Bft) W 270 1,3 C 12,6 C
12.05.2012 18:56 12,6 C 45 % 1030,3 hPa 0,0 l/m 5,4 km/h (1 Bft) W 270 1,0 C 12,6 C
12.05.2012 19:01 12,5 C 44 % 1030,4 hPa 0,0 l/m 11,9 km/h (2 Bft) NW 315 0,6 C 12,5 C
12.05.2012 19:06 12,4 C 45 % 1030,5 hPa 0,0 l/m 10,1 km/h (2 Bft) N-NW 337 0,8 C 12,4 C
12.05.2012 19:11 12,4 C 46 % 1030,5 hPa 0,0 l/m 9,4 km/h (2 Bft) N-NW 337 1,1 C 12,4 C
12.05.2012 19:16 12,3 C 47 % 1030,6 hPa 0,0 l/m 13,3 km/h (3 Bft) W-NW 292 1,3 C 12,3 C
12.05.2012 19:21 12,1 C 47 % 1030,4 hPa 0,0 l/m 5,0 km/h (1 Bft) N 360 1,1 C 12,1 C
12.05.2012 19:26 11,9 C 47 % 1030,5 hPa 0,0 l/m 8,3 km/h (2 Bft) W 270 1,0 C 11,9 C
12.05.2012 19:31 11,6 C 47 % 1030,5 hPa 0,0 l/m 18,4 km/h (3 Bft) W-NW 292 0,7 C 11,6 C
12.05.2012 19:36 11,4 C 48 % 1030,7 hPa 0,0 l/m 18,7 km/h (3 Bft) W-NW 292 0,8 C 11,4 C
12.05.2012 19:41 11,4 C 49 % 1030,6 hPa 0,0 l/m 7,6 km/h (2 Bft) W 270 1,1 C 11,4 C
12.05.2012 19:46 11,4 C 50 % 1030,8 hPa 0,0 l/m 6,8 km/h (2 Bft) W 270 1,4 C 11,4 C
12.05.2012 19:51 11,3 C 50 % 1030,8 hPa 0,0 l/m 7,9 km/h (2 Bft) NW 315 1,3 C 11,3 C
12.05.2012 19:56 11,2 C 51 % 1030,8 hPa 0,0 l/m 5,4 km/h (1 Bft) N 360 1,4 C 11,2 C
12.05.2012 20:01 11,2 C 51 % 1030,9 hPa 0,0 l/m 13,3 km/h (3 Bft) N-NW 337 1,4 C 11,2 C
12.05.2012 20:06 11,0 C 53 % 1030,9 hPa 0,0 l/m 11,2 km/h (2 Bft) W-NW 292 1,8 C 11,0 C
12.05.2012 20:11 10,9 C 53 % 1031,2 hPa 0,0 l/m 8,6 km/h (2 Bft) NW 315 1,7 C 10,9 C
12.05.2012 20:16 10,9 C 54 % 1031,2 hPa 0,0 l/m 9,4 km/h (2 Bft) W-NW 292 2,0 C 10,9 C
12.05.2012 20:21 10,8 C 54 % 1031,2 hPa 0,0 l/m 14,8 km/h (3 Bft) NW 315 1,9 C 10,8 C
12.05.2012 20:26 10,8 C 54 % 1031,2 hPa 0,0 l/m 7,2 km/h (2 Bft) NO 45 1,9 C 10,8 C
12.05.2012 20:31 10,5 C 54 % 1031,3 hPa 0,0 l/m 6,1 km/h (2 Bft) SW 225 1,6 C 10,5 C
12.05.2012 20:36 10,4 C 55 % 1031,4 hPa 0,0 l/m 13,0 km/h (3 Bft) NW 315 1,8 C 10,4 C
12.05.2012 20:41 10,4 C 55 % 1031,5 hPa 0,0 l/m 9,7 km/h (2 Bft) W-NW 292 1,8 C 10,4 C
12.05.2012 20:46 10,3 C 54 % 1031,4 hPa 0,0 l/m 12,2 km/h (2 Bft) NW 315 1,4 C 10,3 C
12.05.2012 20:51 10,2 C 54 % 1031,6 hPa 0,0 l/m 14,4 km/h (3 Bft) N-NW 337 1,3 C 10,2 C
12.05.2012 20:56 10,1 C 55 % 1031,7 hPa 0,0 l/m 12,2 km/h (2 Bft) W 270 1,5 C 10,1 C
12.05.2012 21:01 9,9 C 55 % 1031,9 hPa 0,0 l/m 7,6 km/h (2 Bft) NW 315 1,3 C 9,0 C
12.05.2012 21:06 9,9 C 56 % 1031,9 hPa 0,0 l/m 9,7 km/h (2 Bft) W-NW 292 1,5 C 8,6 C
12.05.2012 21:11 9,8 C 56 % 1032,1 hPa 0,0 l/m 22,0 km/h (4 Bft) W-NW 292 1,4 C 6,9 C
12.05.2012 21:16 9,5 C 57 % 1031,9 hPa 0,0 l/m 20,2 km/h (4 Bft) W-NW 292 1,4 C 6,7 C
12.05.2012 21:21 9,4 C 57 % 1032,0 hPa 0,0 l/m 16,9 km/h (3 Bft) W-NW 292 1,3 C 6,9 C
12.05.2012 21:26 9,3 C 58 % 1032,0 hPa 0,0 l/m 18,0 km/h (3 Bft) W-NW 292 1,5 C 6,7 C
12.05.2012 21:31 9,2 C 58 % 1032,0 hPa 0,0 l/m 7,6 km/h (2 Bft) W 270 1,4 C 8,2 C
12.05.2012 21:36 9,1 C 59 % 1032,1 hPa 0,0 l/m 16,6 km/h (3 Bft) W-NW 292 1,5 C 6,6 C
12.05.2012 21:41 8,9 C 59 % 1032,1 hPa 0,0 l/m 11,9 km/h (2 Bft) NW 315 1,3 C 7,0 C
12.05.2012 21:46 8,8 C 60 % 1032,3 hPa 0,0 l/m 16,9 km/h (3 Bft) W-NW 292 1,5 C 6,2 C
12.05.2012 21:51 8,6 C 60 % 1032,0 hPa 0,0 l/m 11,5 km/h (2 Bft) W-NW 292 1,3 C 6,7 C
12.05.2012 21:56 8,6 C 61 % 1032,1 hPa 0,0 l/m 13,0 km/h (3 Bft) W 270 1,5 C 6,5 C
12.05.2012 22:01 8,5 C 61 % 1032,1 hPa 0,0 l/m 14,8 km/h (3 Bft) N-NW 337 1,4 C 6,1 C
12.05.2012 22:06 8,4 C 62 % 1032,2 hPa 0,0 l/m 15,5 km/h (3 Bft) NW 315 1,6 C 5,9 C
12.05.2012 22:11 8,3 C 62 % 1032,2 hPa 0,0 l/m 16,9 km/h (3 Bft) NW 315 1,5 C 5,6 C
12.05.2012 22:16 8,2 C 63 % 1032,3 hPa 0,0 l/m 12,2 km/h (2 Bft) NW 315 1,6 C 6,1 C
12.05.2012 22:21 8,2 C 63 % 1032,4 hPa 0,0 l/m 9,4 km/h (2 Bft) W-NW 292 1,6 C 6,6 C
12.05.2012 22:26 8,1 C 64 % 1032,3 hPa 0,0 l/m 10,1 km/h (2 Bft) W-NW 292 1,7 C 6,3 C
12.05.2012 22:31 7,9 C 64 % 1032,1 hPa 0,0 l/m 14,0 km/h (3 Bft) W 270 1,5 C 5,5 C
12.05.2012 22:36 7,9 C 64 % 1032,2 hPa 0,0 l/m 14,0 km/h (3 Bft) W 270 1,5 C 5,5 C
12.05.2012 22:41 7,9 C 65 % 1032,2 hPa 0,0 l/m 6,8 km/h (2 Bft) W 270 1,7 C 6,8 C
12.05.2012 22:46 7,8 C 65 % 1032,3 hPa 0,0 l/m 7,6 km/h (2 Bft) W-NW 292 1,6 C 6,5 C
12.05.2012 22:51 7,8 C 65 % 1032,4 hPa 0,0 l/m 16,6 km/h (3 Bft) NW 315 1,6 C 5,0 C
12.05.2012 22:56 7,8 C 65 % 1032,4 hPa 0,0 l/m 8,6 km/h (2 Bft) W-SW 247 1,6 C 6,3 C
12.05.2012 23:01 7,6 C 65 % 1032,4 hPa 0,0 l/m 6,8 km/h (2 Bft) W-SW 247 1,5 C 6,5 C
12.05.2012 23:06 7,5 C 66 % 1032,4 hPa 0,0 l/m 11,9 km/h (2 Bft) W-NW 292 1,6 C 5,3 C
12.05.2012 23:11 7,4 C 67 % 1032,4 hPa 0,0 l/m 7,2 km/h (2 Bft) NW 315 1,7 C 6,1 C
12.05.2012 23:16 7,3 C 67 % 1032,3 hPa 0,0 l/m 5,8 km/h (2 Bft) W-NW 292 1,6 C 6,4 C
12.05.2012 23:21 7,2 C 68 % 1032,4 hPa 0,0 l/m 9,4 km/h (2 Bft) W 270 1,7 C 5,4 C
12.05.2012 23:26 7,2 C 68 % 1032,5 hPa 0,0 l/m 7,6 km/h (2 Bft) NW 315 1,7 C 5,8 C
12.05.2012 23:31 7,2 C 68 % 1032,4 hPa 0,0 l/m 9,0 km/h (2 Bft) W 270 1,7 C 5,5 C
12.05.2012 23:36 7,1 C 68 % 1032,4 hPa 0,0 l/m 8,6 km/h (2 Bft) W 270 1,6 C 5,5 C
12.05.2012 23:41 7,0 C 69 % 1032,5 hPa 0,0 l/m 10,1 km/h (2 Bft) W 270 1,7 C 5,0 C
12.05.2012 23:46 6,9 C 69 % 1032,6 hPa 0,0 l/m 11,9 km/h (2 Bft) W-NW 292 1,6 C 4,6 C
12.05.2012 23:51 6,9 C 69 % 1032,5 hPa 0,0 l/m 8,6 km/h (2 Bft) W 270 1,6 C 5,2 C
12.05.2012 23:56 6,9 C 69 % 1032,4 hPa 0,0 l/m 7,6 km/h (2 Bft) W-NW 292 1,6 C 5,5 C
_ Min-Zeit 23:46 17:11 00:01 - 00:01 - - 19:01 23:46
Minimum _ 6,9 C 42 % 1022,1 hPa - 0,0 km/h (0 Bft) - - 0,6 C 4,6 C
_ Max-Zeit 15:01 00:01 23:46 00:01 11:31 - - 00:01 15:01
Maximum _ 15,1 C 82 % 1032,6 hPa 0,0 l/m 32,8 km/h
W-NW (5 Bft)
- - 11,1 C 15,1 C
Durchschnitt _ 11,4 C 62 % 1028,1 hPa #0,0 l/m 13,2 km/h (3 Bft) W-NW - 4,0 C 10,8 C
(c) by David Heller